Time;durP1;ratioP1;P1;durP2;ratioP2;P2;SDS_P1;SDS_P2;PMS_P1;PMS_P2;Temp;Humidity;BMP_temperature;BMP_pressure;BME280_temperature;BME280_humidity;BME280_pressure;Samples;Min_cycle;Max_cycle;Signal;HPM_P1;HPM_P2
2022/04/22 00:00:33;;;;;;;1.75;1.40;;;19.20;53.40;;;;;;5127086;27;45327;-74
2022/04/22 00:03:01;;;;;;;1.80;1.23;;;19.20;53.40;;;;;;5118212;27;45584;-74
2022/04/22 00:05:28;;;;;;;2.05;1.17;;;19.20;53.40;;;;;;5122484;27;47324;-74
2022/04/22 00:07:54;;;;;;;1.90;1.20;;;19.20;53.40;;;;;;5127886;27;45254;-74
2022/04/22 00:10:21;;;;;;;1.70;1.20;;;19.20;53.40;;;;;;5120124;27;45222;-75
2022/04/22 00:12:48;;;;;;;1.95;1.30;;;19.20;53.40;;;;;;5125633;27;45302;-74
2022/04/22 00:15:15;;;;;;;2.03;1.20;;;19.20;53.10;;;;;;5121775;27;47397;-74
2022/04/22 00:17:42;;;;;;;1.63;1.08;;;19.20;52.90;;;;;;5120220;27;45727;-74
2022/04/22 00:20:12;;;;;;;1.65;1.25;;;19.20;53.20;;;;;;5118820;27;45649;-74
2022/04/22 00:22:40;;;;;;;1.95;1.20;;;19.20;53.00;;;;;;5119597;27;45195;-75
2022/04/22 00:25:09;;;;;;;2.00;1.40;;;19.20;53.00;;;;;;5128466;27;45390;-75
2022/04/22 00:27:36;;;;;;;2.10;1.40;;;19.20;52.90;;;;;;5124011;27;45526;-74
2022/04/22 00:30:05;;;;;;;1.38;1.20;;;19.20;52.90;;;;;;5128428;27;45270;-75
2022/04/22 00:32:33;;;;;;;3.60;1.50;;;19.20;53.00;;;;;;5129608;27;45180;-74
2022/04/22 00:35:00;;;;;;;1.55;1.30;;;19.20;53.10;;;;;;5130322;27;45342;-74
2022/04/22 00:37:28;;;;;;;1.77;1.23;;;19.20;53.20;;;;;;5120351;27;45250;-75
2022/04/22 00:39:55;;;;;;;1.85;1.30;;;19.20;53.40;;;;;;5123561;27;45240;-74
2022/04/22 00:42:22;;;;;;;1.45;1.35;;;19.20;53.30;;;;;;5124118;27;45540;-75
2022/04/22 00:44:49;;;;;;;2.17;1.20;;;19.20;53.20;;;;;;5128486;27;46584;-75
2022/04/22 00:47:16;;;;;;;2.00;1.25;;;19.20;53.30;;;;;;5123365;27;45163;-74
2022/04/22 00:49:43;;;;;;;1.50;1.23;;;19.20;53.30;;;;;;5127502;27;45209;-74
2022/04/22 00:52:11;;;;;;;2.15;1.52;;;19.20;53.30;;;;;;5128557;27;45151;-75
2022/04/22 00:54:39;;;;;;;2.17;1.48;;;19.20;53.20;;;;;;5126436;27;45743;-74
2022/04/22 00:57:06;;;;;;;1.80;1.20;;;19.20;53.40;;;;;;5128262;27;45349;-75
2022/04/22 00:59:36;;;;;;;1.63;1.20;;;19.10;53.30;;;;;;5112029;27;45261;-74
2022/04/22 01:02:03;;;;;;;1.88;1.38;;;19.20;53.40;;;;;;5125323;27;45365;-75
2022/04/22 01:10:00;;;;;;;2.20;1.40;;;19.20;53.40;;;;;;5123262;27;45311;-75
2022/04/22 01:12:30;;;;;;;1.85;1.13;;;19.20;53.00;;;;;;5128739;27;45198;-75
2022/04/22 01:14:58;;;;;;;2.78;1.60;;;19.20;52.90;;;;;;5122304;27;46164;-75
2022/04/22 01:17:26;;;;;;;2.30;1.73;;;19.20;53.00;;;;;;5123010;27;45358;-75
2022/04/22 01:19:53;;;;;;;1.98;1.60;;;19.20;52.80;;;;;;5122556;27;45329;-74
2022/04/22 01:22:21;;;;;;;2.05;1.65;;;19.20;52.80;;;;;;5119815;27;46288;-75
2022/04/22 01:24:50;;;;;;;1.88;1.58;;;19.20;52.90;;;;;;5122263;27;46316;-75
2022/04/22 01:27:17;;;;;;;1.92;1.45;;;19.20;52.90;;;;;;5125434;27;45310;-75
2022/04/22 01:29:44;;;;;;;3.10;1.50;;;19.20;52.90;;;;;;5126810;27;45381;-74
2022/04/22 01:32:11;;;;;;;1.70;1.20;;;19.20;52.90;;;;;;5126536;27;45209;-75
2022/04/22 01:34:38;;;;;;;1.45;1.20;;;19.20;53.00;;;;;;5128298;27;45308;-74
2022/04/22 01:37:06;;;;;;;2.00;1.48;;;19.20;52.90;;;;;;5120915;27;45384;-74
2022/04/22 01:39:34;;;;;;;1.67;1.38;;;19.20;53.30;;;;;;5127979;27;45588;-74
2022/04/22 01:42:00;;;;;;;2.83;1.42;;;19.20;53.30;;;;;;5124327;27;45442;-75
2022/04/22 01:44:28;;;;;;;2.20;1.30;;;19.10;53.20;;;;;;5128415;27;46623;-75
2022/04/22 01:46:55;;;;;;;2.20;1.23;;;19.10;53.30;;;;;;5123511;27;45360;-75
2022/04/22 01:49:22;;;;;;;1.35;1.20;;;19.10;53.30;;;;;;5127567;27;45228;-75
2022/04/22 01:51:49;;;;;;;2.17;1.30;;;19.10;53.30;;;;;;5127698;27;45190;-74
2022/04/22 01:54:17;;;;;;;2.00;1.25;;;19.10;53.30;;;;;;5118891;27;45228;-75
2022/04/22 01:56:45;;;;;;;2.08;1.17;;;19.10;53.30;;;;;;5126291;27;45217;-74
2022/04/22 01:59:12;;;;;;;2.28;1.23;;;19.10;53.30;;;;;;5123483;27;45252;-75
2022/04/22 02:01:38;;;;;;;1.90;1.35;;;19.10;53.30;;;;;;5124552;27;45486;-75
2022/04/22 02:04:05;;;;;;;1.63;1.13;;;19.10;53.30;;;;;;5122053;27;47281;-74
2022/04/22 02:06:32;;;;;;;2.20;1.50;;;19.10;53.30;;;;;;5127095;27;45619;-75
2022/04/22 02:08:59;;;;;;;1.90;1.30;;;19.10;53.30;;;;;;5121034;27;45646;-75
2022/04/22 02:11:26;;;;;;;2.75;1.42;;;19.10;53.30;;;;;;5127827;27;45941;-74
2022/04/22 02:13:54;;;;;;;2.05;1.67;;;19.10;53.30;;;;;;5123984;27;46209;-77
2022/04/22 02:16:20;;;;;;;2.10;1.60;;;19.10;53.30;;;;;;5122849;27;45252;-75
2022/04/22 02:18:49;;;;;;;1.40;1.25;;;19.10;53.30;;;;;;5124866;27;45675;-75
2022/04/22 02:21:15;;;;;;;1.98;1.45;;;19.10;53.30;;;;;;5126352;27;45467;-75
2022/04/22 02:23:42;;;;;;;2.00;1.55;;;19.10;53.30;;;;;;5128075;27;45109;-75
2022/04/22 02:26:09;;;;;;;2.15;1.42;;;19.10;53.30;;;;;;5125199;27;45311;-75
2022/04/22 02:28:35;;;;;;;2.95;1.50;;;19.10;53.30;;;;;;5121201;27;45286;-75
2022/04/22 02:31:06;;;;;;;1.55;1.30;;;19.10;53.30;;;;;;5128154;27;45192;-75
2022/04/22 02:33:33;;;;;;;1.63;1.40;;;19.10;53.30;;;;;;5131298;27;45648;-75
2022/04/22 02:36:00;;;;;;;2.10;1.40;;;19.10;53.30;;;;;;5125657;27;46019;-75
2022/04/22 02:38:28;;;;;;;1.70;1.33;;;19.10;53.30;;;;;;5128664;27;45247;-75
2022/04/22 02:46:27;;;;;;;2.25;1.42;;;19.10;53.30;;;;;;5126020;27;45275;-75
2022/04/22 02:48:57;;;;;;;1.58;1.23;;;19.10;53.30;;;;;;5128802;27;45312;-75
2022/04/22 02:51:24;;;;;;;1.50;1.25;;;19.10;53.30;;;;;;5121950;27;45104;-74
2022/04/22 02:53:50;;;;;;;2.80;1.45;;;19.10;53.30;;;;;;5127524;27;48206;-75
2022/04/22 02:56:18;;;;;;;2.65;1.52;;;19.10;53.30;;;;;;5118530;27;45167;-75
2022/04/22 02:58:46;;;;;;;1.63;1.30;;;19.10;53.30;;;;;;5130423;27;45201;-74
2022/04/22 03:01:13;;;;;;;1.80;1.40;;;19.10;53.30;;;;;;5125376;27;45326;-75
2022/04/22 03:03:41;;;;;;;2.03;1.70;;;19.10;53.30;;;;;;5129595;27;45492;-74
2022/04/22 03:06:08;;;;;;;1.88;1.60;;;19.10;53.30;;;;;;5128932;27;45650;-74
2022/04/22 03:08:37;;;;;;;2.47;1.33;;;19.10;53.30;;;;;;5120160;27;45578;-75
2022/04/22 03:11:04;;;;;;;1.73;1.35;;;19.00;53.20;;;;;;5128095;27;45741;-74
2022/04/22 03:13:31;;;;;;;2.03;1.27;;;19.10;53.30;;;;;;5122316;27;46436;-75
2022/04/22 03:15:59;;;;;;;2.17;1.60;;;19.10;53.30;;;;;;5129453;27;45232;-75
2022/04/22 03:18:26;;;;;;;1.30;1.13;;;19.10;53.30;;;;;;5125108;27;45364;-74
2022/04/22 03:20:54;;;;;;;1.67;1.38;;;19.10;53.30;;;;;;5124067;27;45307;-74
2022/04/22 03:23:21;;;;;;;2.40;1.70;;;19.10;53.30;;;;;;5117379;27;45329;-74
2022/04/22 03:25:48;;;;;;;3.13;1.70;;;19.10;53.30;;;;;;5124702;27;45399;-75
2022/04/22 03:28:15;;;;;;;1.83;1.52;;;19.10;53.30;;;;;;5126572;27;45372;-74
2022/04/22 03:30:42;;;;;;;2.03;1.40;;;19.10;53.30;;;;;;5124711;27;45219;-74
2022/04/22 03:33:09;;;;;;;3.95;1.75;;;19.10;53.30;;;;;;5130570;27;45307;-75
2022/04/22 03:35:36;;;;;;;1.95;1.50;;;19.10;53.30;;;;;;5126946;27;45255;-75
2022/04/22 03:38:04;;;;;;;2.72;1.40;;;19.10;54.50;;;;;;5129374;27;45252;-75
2022/04/22 03:40:31;;;;;;;2.15;1.48;;;19.10;53.30;;;;;;5130491;27;45184;-75
2022/04/22 03:42:57;;;;;;;2.72;1.80;;;19.10;53.30;;;;;;5122515;27;48203;-75
2022/04/22 03:45:24;;;;;;;2.00;1.63;;;19.10;53.30;;;;;;5127488;27;45313;-75
2022/04/22 03:47:51;;;;;;;2.20;1.77;;;19.10;53.30;;;;;;5129096;27;45304;-74
2022/04/22 03:50:18;;;;;;;2.65;1.80;;;19.10;53.30;;;;;;5123519;27;45365;-75
2022/04/22 03:52:45;;;;;;;2.00;1.73;;;19.10;53.30;;;;;;5127184;27;46183;-74
2022/04/22 03:55:13;;;;;;;2.53;1.90;;;19.10;53.30;;;;;;5129300;27;45253;-75
2022/04/22 04:00:24;;;;;;;2.28;1.80;;;19.10;53.30;;;;;;5121989;27;45212;-74
2022/04/22 04:02:51;;;;;;;2.97;1.98;;;19.10;53.30;;;;;;5129609;27;46228;-75
2022/04/22 04:05:18;;;;;;;1.95;1.70;;;19.10;53.30;;;;;;5122720;27;45249;-75
2022/04/22 04:07:45;;;;;;;2.67;2.10;;;19.10;53.30;;;;;;5120486;27;45315;-75
2022/04/22 04:16:00;;;;;;;2.35;1.80;;;19.10;53.30;;;;;;5128664;27;45297;-75
2022/04/22 04:18:29;;;;;;;2.65;2.05;;;19.10;53.30;;;;;;5126702;27;45752;-75
2022/04/22 04:23:41;;;;;;;3.03;2.08;;;19.10;53.30;;;;;;5128779;27;45996;-75
2022/04/22 04:26:10;;;;;;;1.88;1.65;;;19.10;53.30;;;;;;5122494;27;45128;-75
2022/04/22 04:28:38;;;;;;;3.35;2.00;;;19.10;53.30;;;;;;5126441;27;45269;-74
2022/04/22 04:31:06;;;;;;;3.13;2.03;;;19.10;53.30;;;;;;5125489;27;45398;-74
2022/04/22 04:33:33;;;;;;;3.22;2.25;;;19.10;53.30;;;;;;5126125;27;46438;-75
2022/04/22 04:36:01;;;;;;;2.70;2.20;;;19.10;53.30;;;;;;5124086;27;45200;-74
2022/04/22 04:38:28;;;;;;;3.03;2.05;;;19.10;53.30;;;;;;5128766;27;45342;-75
2022/04/22 04:40:55;;;;;;;3.03;2.10;;;19.10;53.30;;;;;;5120153;27;45271;-74
2022/04/22 04:43:24;;;;;;;3.33;2.25;;;19.10;53.70;;;;;;5124645;27;47096;-75
2022/04/22 04:45:51;;;;;;;3.35;2.30;;;19.10;53.20;;;;;;5128123;27;45210;-75
2022/04/22 04:48:18;;;;;;;2.95;2.30;;;19.10;53.30;;;;;;5124772;27;45364;-75
2022/04/22 04:50:47;;;;;;;3.45;2.30;;;19.10;53.10;;;;;;5122323;27;45096;-75
2022/04/22 04:53:14;;;;;;;3.45;2.30;;;19.10;53.30;;;;;;5116717;27;48159;-74
2022/04/22 04:55:41;;;;;;;3.70;2.50;;;19.10;53.30;;;;;;5121279;27;46672;-75
2022/04/22 04:58:08;;;;;;;3.97;2.50;;;19.00;53.20;;;;;;5117582;27;45215;-75
2022/04/22 05:00:36;;;;;;;3.58;2.60;;;19.00;53.30;;;;;;5120758;27;45251;-74
2022/04/22 05:03:03;;;;;;;3.30;2.20;;;19.00;53.20;;;;;;5126295;27;45472;-74
2022/04/22 05:05:30;;;;;;;3.75;2.03;;;19.00;53.30;;;;;;5122749;27;45483;-75
2022/04/22 05:07:58;;;;;;;3.42;2.25;;;19.00;53.20;;;;;;5122819;27;46413;-75
2022/04/22 05:10:26;;;;;;;3.22;2.38;;;19.00;53.20;;;;;;5114582;27;45158;-75
2022/04/22 05:12:54;;;;;;;3.50;2.70;;;19.00;53.20;;;;;;5125573;27;47515;-75
2022/04/22 05:15:23;;;;;;;4.07;2.65;;;19.00;53.20;;;;;;5113188;27;45217;-75
2022/04/22 05:17:53;;;;;;;4.53;2.33;;;19.00;53.20;;;;;;5115468;27;45284;-74
2022/04/22 05:20:21;;;;;;;3.58;2.45;;;19.00;53.70;;;;;;5122243;27;45362;-74
2022/04/22 05:22:48;;;;;;;3.65;2.42;;;19.00;53.20;;;;;;5128202;27;46507;-74
2022/04/22 05:25:16;;;;;;;3.33;2.40;;;19.00;53.20;;;;;;5126333;27;45235;-74
2022/04/22 05:27:43;;;;;;;4.15;3.10;;;19.00;52.80;;;;;;5127056;27;45302;-75
2022/04/22 05:32:57;;;;;;;4.18;2.92;;;19.00;52.10;;;;;;5128346;27;45303;-75
2022/04/22 05:35:27;;;;;;;4.40;2.85;;;19.00;52.20;;;;;;5118883;27;45434;-74
2022/04/22 05:37:55;;;;;;;3.60;2.95;;;19.00;52.20;;;;;;5122750;27;45221;-74
2022/04/22 05:40:24;;;;;;;3.47;2.92;;;19.00;51.80;;;;;;5121743;27;45386;-74
2022/04/22 05:42:52;;;;;;;3.83;2.50;;;19.00;52.10;;;;;;5125528;27;47177;-74
2022/04/22 05:45:20;;;;;;;6.15;3.63;;;19.00;52.20;;;;;;5117177;27;45164;-75
2022/04/22 05:47:47;;;;;;;4.65;2.90;;;19.10;53.20;;;;;;5119912;27;45347;-74
2022/04/22 05:50:19;;;;;;;3.58;2.50;;;19.10;52.20;;;;;;5127728;27;45211;-75
2022/04/22 05:52:46;;;;;;;4.60;2.80;;;19.10;53.40;;;;;;5115812;27;46486;-75
2022/04/22 05:55:16;;;;;;;4.85;2.67;;;19.10;53.30;;;;;;5124062;27;45311;-75
2022/04/22 05:57:44;;;;;;;4.10;2.45;;;19.10;53.30;;;;;;5126136;27;45315;-74
2022/04/22 06:00:13;;;;;;;3.60;2.55;;;19.10;53.30;;;;;;5121554;27;45347;-74
2022/04/22 06:02:41;;;;;;;5.38;2.63;;;19.10;53.30;;;;;;5121006;27;45489;-74
2022/04/22 06:05:08;;;;;;;3.58;2.45;;;19.10;53.40;;;;;;5117441;27;45363;-75
2022/04/22 06:07:37;;;;;;;4.13;2.58;;;19.10;53.70;;;;;;5121416;27;45377;-74
2022/04/22 06:12:49;;;;;;;3.33;2.30;;;19.10;54.30;;;;;;5106382;27;46199;-75
2022/04/22 06:15:15;;;;;;;3.58;2.63;;;19.20;54.40;;;;;;5124534;27;45724;-75
2022/04/22 06:17:42;;;;;;;3.97;2.58;;;19.10;54.30;;;;;;5117897;27;45554;-75
2022/04/22 06:20:10;;;;;;;2.95;2.40;;;19.10;54.40;;;;;;5117428;27;45345;-75
2022/04/22 06:22:39;;;;;;;3.55;2.70;;;19.10;54.70;;;;;;5122018;27;46207;-75
2022/04/22 06:25:08;;;;;;;3.70;2.70;;;19.10;54.40;;;;;;5116870;27;45256;-74
2022/04/22 06:27:37;;;;;;;3.72;2.88;;;19.10;54.70;;;;;;5122000;27;45361;-75
2022/04/22 06:30:07;;;;;;;3.60;2.30;;;19.10;54.60;;;;;;5119077;27;45138;-77
2022/04/22 06:32:35;;;;;;;4.75;2.65;;;19.20;54.90;;;;;;5116852;27;48484;-75
2022/04/22 06:35:02;;;;;;;3.85;2.70;;;19.20;54.80;;;;;;5123254;27;45241;-74
2022/04/22 06:37:34;;;;;;;3.90;2.85;;;19.20;55.00;;;;;;5118560;27;45335;-74
2022/04/22 06:45:48;;;;;;;4.05;2.78;;;19.20;55.40;;;;;;5125003;27;45187;-74
2022/04/22 06:48:19;;;;;;;4.68;2.88;;;19.20;55.20;;;;;;5119810;27;45190;-74
2022/04/22 06:50:48;;;;;;;4.53;2.75;;;19.20;55.40;;;;;;5125535;27;45448;-76
2022/04/22 06:53:16;;;;;;;3.40;2.50;;;19.20;55.20;;;;;;5125132;27;45258;-76
2022/04/22 06:55:45;;;;;;;3.05;2.35;;;19.20;55.40;;;;;;5122350;27;45239;-76
2022/04/22 06:58:14;;;;;;;5.18;2.75;;;19.20;55.30;;;;;;5123636;27;45296;-76
2022/04/22 07:00:42;;;;;;;4.05;2.35;;;19.20;55.20;;;;;;5129249;27;45248;-76
2022/04/22 07:03:10;;;;;;;3.72;2.60;;;19.20;55.60;;;;;;5123978;27;47111;-75
2022/04/22 07:05:40;;;;;;;4.30;2.97;;;19.20;55.50;;;;;;5114175;27;45325;-75
2022/04/22 07:08:13;;;;;;;3.60;2.40;;;19.20;55.50;;;;;;5115532;27;45608;-76
2022/04/22 07:10:40;;;;;;;3.63;2.50;;;19.20;55.80;;;;;;5122193;27;45242;-76
2022/04/22 07:13:10;;;;;;;3.15;2.42;;;19.20;55.60;;;;;;5120721;27;46203;-76
2022/04/22 07:15:38;;;;;;;3.80;2.60;;;19.20;55.80;;;;;;5124507;27;45346;-76
2022/04/22 07:18:05;;;;;;;3.65;2.33;;;19.20;55.70;;;;;;5113018;27;45373;-76
2022/04/22 07:20:33;;;;;;;3.15;2.20;;;19.20;55.70;;;;;;5116351;27;45210;-76
2022/04/22 07:23:00;;;;;;;3.45;2.50;;;19.20;55.70;;;;;;5123991;27;47489;-76
2022/04/22 07:25:27;;;;;;;4.07;2.42;;;19.20;55.70;;;;;;5127462;27;45293;-76
2022/04/22 07:27:55;;;;;;;4.10;2.50;;;19.20;55.80;;;;;;5130556;27;45152;-75
2022/04/22 07:30:24;;;;;;;4.68;2.38;;;19.20;55.90;;;;;;5129284;27;45337;-76
2022/04/22 07:32:51;;;;;;;3.17;2.30;;;19.20;55.80;;;;;;5127842;27;47973;-75
2022/04/22 07:35:19;;;;;;;3.42;2.40;;;19.20;55.90;;;;;;5129115;27;45583;-76
2022/04/22 07:37:48;;;;;;;4.03;2.58;;;19.20;55.90;;;;;;5119187;27;45373;-76
2022/04/22 07:40:17;;;;;;;3.63;2.53;;;19.20;55.90;;;;;;5129975;27;45218;-75
2022/04/22 07:46:46;;;;;;;3.55;2.50;;;19.20;55.90;;;;;;5123999;27;46162;-75
2022/04/22 07:48:25;;;;;;;2.92;2.40;;;19.20;55.80;;;;;;5123605;27;45434;-76
2022/04/22 07:50:54;;;;;;;4.10;2.35;;;19.20;55.70;;;;;;5128885;27;45343;-75
2022/04/22 07:53:22;;;;;;;2.60;2.15;;;19.20;55.80;;;;;;5112979;27;48645;-76
2022/04/22 07:55:49;;;;;;;2.85;2.28;;;19.20;55.80;;;;;;5116448;27;45199;-75
2022/04/22 07:58:17;;;;;;;3.80;2.38;;;19.10;55.70;;;;;;5127905;27;45242;-75
2022/04/22 08:00:46;;;;;;;3.90;2.65;;;19.10;55.90;;;;;;5126586;27;45586;-76
2022/04/22 08:03:13;;;;;;;3.42;2.30;;;19.10;55.90;;;;;;5126930;27;46623;-76
2022/04/22 08:05:40;;;;;;;4.20;2.50;;;19.10;55.90;;;;;;5113083;27;45550;-76
2022/04/22 08:08:08;;;;;;;3.35;2.08;;;19.10;55.90;;;;;;5126605;27;45359;-76
2022/04/22 08:10:35;;;;;;;2.92;2.35;;;19.10;57.20;;;;;;5129554;27;45143;-76
2022/04/22 08:13:03;;;;;;;2.80;2.28;;;19.10;55.90;;;;;;5113609;27;46520;-76
2022/04/22 08:15:30;;;;;;;3.55;2.50;;;19.20;56.10;;;;;;5112550;27;45239;-76
2022/04/22 08:17:59;;;;;;;3.88;2.75;;;19.10;56.10;;;;;;5128890;27;45564;-75
2022/04/22 08:20:25;;;;;;;3.50;2.45;;;19.20;56.20;;;;;;5129913;27;45400;-76
2022/04/22 08:22:52;;;;;;;3.60;2.67;;;19.10;56.20;;;;;;5125340;27;46636;-76
2022/04/22 08:25:19;;;;;;;4.07;2.70;;;19.20;56.40;;;;;;5122980;27;45182;-75
2022/04/22 08:27:47;;;;;;;3.15;2.45;;;19.20;56.30;;;;;;5120943;27;45379;-76
2022/04/22 08:30:14;;;;;;;3.28;2.40;;;19.20;56.40;;;;;;5119305;27;45649;-76
2022/04/22 08:32:41;;;;;;;2.92;2.42;;;19.20;56.30;;;;;;5125926;27;45660;-76
2022/04/22 08:35:10;;;;;;;2.97;2.30;;;19.20;56.40;;;;;;5126094;27;45300;-76
2022/04/22 08:37:37;;;;;;;2.97;2.30;;;19.20;56.50;;;;;;5128230;27;45253;-76
2022/04/22 08:40:06;;;;;;;4.60;2.47;;;19.20;56.30;;;;;;5128179;27;45263;-76
2022/04/22 08:42:34;;;;;;;4.15;2.85;;;19.10;56.10;;;;;;5124570;27;45250;-76
2022/04/22 08:45:01;;;;;;;3.47;2.40;;;19.20;56.30;;;;;;5128185;27;45703;-76
2022/04/22 08:50:16;;;;;;;3.25;2.25;;;19.20;56.40;;;;;;5122724;27;45461;-76
2022/04/22 08:52:44;;;;;;;3.00;2.13;;;19.20;56.30;;;;;;5107082;27;46270;-76
2022/04/22 08:55:12;;;;;;;4.32;2.60;;;19.10;56.00;;;;;;5126480;27;45337;-76
2022/04/22 08:57:41;;;;;;;2.95;2.13;;;19.20;56.20;;;;;;5125143;27;45268;-76
2022/04/22 09:00:09;;;;;;;2.50;2.03;;;19.20;56.30;;;;;;5113511;27;45295;-75
2022/04/22 09:02:36;;;;;;;3.03;2.63;;;19.10;56.20;;;;;;5125322;27;45223;-76
2022/04/22 09:05:03;;;;;;;2.50;2.10;;;19.20;56.40;;;;;;5125072;27;45406;-76
2022/04/22 09:07:32;;;;;;;2.72;2.05;;;19.20;56.40;;;;;;5122942;27;45221;-76
2022/04/22 09:09:59;;;;;;;3.90;2.25;;;19.20;56.50;;;;;;5114545;27;45407;-76
2022/04/22 09:12:27;;;;;;;3.63;2.30;;;19.20;56.60;;;;;;5121838;27;47950;-75
2022/04/22 09:14:56;;;;;;;3.15;2.28;;;19.10;56.30;;;;;;5122009;27;45207;-75
2022/04/22 09:17:25;;;;;;;2.50;1.85;;;19.20;56.60;;;;;;5124134;27;45276;-76
2022/04/22 09:19:53;;;;;;;2.78;2.15;;;19.20;56.60;;;;;;5127951;27;45150;-76
2022/04/22 09:22:21;;;;;;;3.78;2.00;;;19.20;56.60;;;;;;5126463;27;45546;-76
2022/04/22 09:24:51;;;;;;;2.33;2.05;;;19.20;56.60;;;;;;5119783;27;45138;-76
2022/04/22 09:27:18;;;;;;;3.50;2.15;;;19.10;56.60;;;;;;5127207;27;45225;-76
2022/04/22 09:29:54;;;;;;;3.88;3.00;;;19.10;56.60;;;;;;5118098;27;45370;-76
2022/04/22 09:32:25;;;;;;;4.82;3.03;;;19.10;57.00;;;;;;5125015;27;46249;-76
2022/04/22 09:34:52;;;;;;;4.70;3.47;;;19.10;57.00;;;;;;5126510;27;45120;-76
2022/04/22 09:42:54;;;;;;;3.63;2.92;;;19.10;57.60;;;;;;5123419;27;45600;-75
2022/04/22 09:45:21;;;;;;;3.97;3.00;;;19.10;57.60;;;;;;5126408;27;45116;-76
2022/04/22 09:47:59;;;;;;;5.20;3.20;;;19.10;57.40;;;;;;5128017;27;45458;-76
2022/04/22 09:50:42;;;;;;;4.78;3.85;;;19.10;57.70;;;;;;5127760;27;45398;-76
2022/04/22 09:53:11;;;;;;;6.07;3.47;;;19.20;58.00;;;;;;5107990;27;46478;-75
2022/04/22 09:55:48;;;;;;;5.18;3.72;;;19.20;57.70;;;;;;5112244;27;45388;-75
2022/04/22 09:58:25;;;;;;;4.53;3.72;;;19.20;57.80;;;;;;5122869;27;45328;-76
2022/04/22 10:01:06;;;;;;;5.40;3.72;;;19.20;57.80;;;;;;5120691;27;45319;-76
2022/04/22 10:03:34;;;;;;;5.57;4.35;;;19.30;57.90;;;;;;5118087;27;46447;-76
2022/04/22 10:06:01;;;;;;;6.00;3.45;;;19.30;59.00;;;;;;5128581;27;45186;-76
2022/04/22 10:08:31;;;;;;;5.97;3.90;;;19.30;57.90;;;;;;5124713;27;45668;-76
2022/04/22 10:11:01;;;;;;;5.60;3.67;;;19.30;57.80;;;;;;5116931;27;45624;-76
2022/04/22 10:13:34;;;;;;;4.35;3.50;;;19.30;57.90;;;;;;5116909;27;45133;-76
2022/04/22 10:16:02;;;;;;;5.15;4.00;;;19.30;57.70;;;;;;5127065;27;45350;-76
2022/04/22 10:18:31;;;;;;;5.97;3.50;;;19.30;57.70;;;;;;5118813;27;45305;-76
2022/04/22 10:20:59;;;;;;;5.80;3.83;;;19.30;57.70;;;;;;5120339;27;45245;-76
2022/04/22 10:23:27;;;;;;;5.93;3.88;;;19.30;57.80;;;;;;5128694;27;45409;-76
2022/04/22 10:25:54;;;;;;;5.55;3.80;;;19.20;57.60;;;;;;5126504;27;45341;-76
2022/04/22 10:28:24;;;;;;;5.32;3.72;;;19.20;57.70;;;;;;5124605;27;45191;-76
2022/04/22 10:30:53;;;;;;;5.68;3.50;;;19.20;57.80;;;;;;5137018;27;45177;-76
2022/04/22 10:33:25;;;;;;;5.03;3.70;;;19.20;57.90;;;;;;5126332;27;45499;-76
2022/04/22 10:35:58;;;;;;;5.85;3.55;;;19.20;57.80;;;;;;5119313;27;45198;-76
2022/04/22 10:38:34;;;;;;;6.88;3.85;;;19.20;58.10;;;;;;5125690;27;45168;-75
2022/04/22 10:41:05;;;;;;;5.28;3.53;;;19.20;58.10;;;;;;5128524;27;45205;-76
2022/04/22 10:43:34;;;;;;;6.95;3.40;;;19.20;57.90;;;;;;5126162;27;46508;-75
2022/04/22 10:49:10;;;;;;;4.70;3.60;;;19.20;57.80;;;;;;5128304;27;45322;-76
2022/04/22 10:52:03;;;;;;;4.80;3.50;;;19.20;57.80;;;;;;5118659;27;45583;-75
2022/04/22 10:55:09;;;;;;;5.20;3.63;;;19.20;57.70;;;;;;5108524;27;46368;-76
2022/04/22 10:57:36;;;;;;;7.05;4.25;;;19.20;57.70;;;;;;5124961;27;45336;-76
2022/04/22 11:00:27;;;;;;;6.60;4.35;;;19.20;57.70;;;;;;5128981;27;45214;-76
2022/04/22 11:03:01;;;;;;;5.38;3.75;;;19.20;57.60;;;;;;5127789;27;45487;-75
2022/04/22 11:05:35;;;;;;;5.50;3.42;;;19.20;57.70;;;;;;5125173;27;46150;-76
2022/04/22 11:08:02;;;;;;;7.10;3.45;;;19.20;57.60;;;;;;5125258;27;45206;-76
2022/04/22 11:11:08;;;;;;;5.25;3.60;;;19.20;57.50;;;;;;5123349;27;45413;-76
2022/04/22 11:13:41;;;;;;;4.95;3.38;;;19.20;57.50;;;;;;5120746;27;45453;-76
2022/04/22 11:16:14;;;;;;;5.38;3.25;;;19.20;57.40;;;;;;5124594;27;46181;-76
2022/04/22 11:18:43;;;;;;;4.72;3.03;;;19.20;57.30;;;;;;5127064;27;45181;-76
2022/04/22 11:21:19;;;;;;;4.57;3.30;;;19.20;57.40;;;;;;5124472;27;45374;-76
2022/04/22 11:23:46;;;;;;;5.82;3.63;;;19.20;57.40;;;;;;5125016;27;45286;-76
2022/04/22 11:26:14;;;;;;;7.57;3.50;;;19.20;57.30;;;;;;5123439;27;47375;-76
2022/04/22 11:28:42;;;;;;;7.15;3.33;;;19.20;57.40;;;;;;5120613;27;45903;-76
2022/04/22 11:31:12;;;;;;;4.32;3.00;;;19.20;57.50;;;;;;5116818;27;45246;-76
2022/04/22 11:33:51;;;;;;;4.78;3.13;;;19.20;57.40;;;;;;5123257;27;45292;-76
2022/04/22 11:36:18;;;;;;;4.68;3.20;;;19.20;57.40;;;;;;5123130;27;46205;-75
2022/04/22 11:38:48;;;;;;;5.38;3.10;;;19.20;57.40;;;;;;5141515;27;45243;-76
2022/04/22 11:41:17;;;;;;;4.30;3.25;;;19.20;57.40;;;;;;5121884;27;45392;-76
2022/04/22 11:43:44;;;;;;;4.70;2.90;;;19.20;57.20;;;;;;5124092;27;45158;-76
2022/04/22 11:46:14;;;;;;;5.97;3.30;;;19.20;57.00;;;;;;5123669;27;47217;-76
2022/04/22 11:48:48;;;;;;;5.57;3.35;;;19.20;57.00;;;;;;5124470;27;45301;-76
2022/04/22 11:51:16;;;;;;;5.65;2.97;;;19.20;57.10;;;;;;5130225;27;45280;-76
2022/04/22 11:53:48;;;;;;;4.57;3.08;;;19.20;57.20;;;;;;5122481;27;45161;-76
2022/04/22 11:56:19;;;;;;;4.07;2.97;;;19.20;57.10;;;;;;5129922;27;47334;-75
2022/04/22 11:58:47;;;;;;;4.53;2.50;;;19.20;57.00;;;;;;5121919;27;45254;-76
2022/04/22 12:06:46;;;;;;;4.45;2.95;;;19.20;57.00;;;;;;5108559;27;45371;-76
2022/04/22 12:09:13;;;;;;;3.65;2.80;;;19.20;56.90;;;;;;5129787;27;45195;-75
2022/04/22 12:11:42;;;;;;;3.28;2.67;;;19.20;57.00;;;;;;5127902;27;45294;-76
2022/04/22 12:14:10;;;;;;;4.90;2.75;;;19.20;57.00;;;;;;5127028;27;45294;-76
2022/04/22 12:16:38;;;;;;;5.32;2.80;;;19.20;56.90;;;;;;5130909;27;45152;-75
2022/04/22 12:19:08;;;;;;;5.20;3.08;;;19.30;56.90;;;;;;5128907;27;46104;-75
2022/04/22 12:21:35;;;;;;;5.20;2.80;;;19.20;56.80;;;;;;5130539;27;45225;-76
2022/04/22 12:24:03;;;;;;;4.53;3.00;;;19.20;56.70;;;;;;5125369;27;45093;-76
2022/04/22 12:26:34;;;;;;;3.47;2.42;;;19.20;56.70;;;;;;5116193;27;46204;-76
2022/04/22 12:29:03;;;;;;;4.50;2.80;;;19.20;56.50;;;;;;5124831;27;45112;-76
2022/04/22 12:31:32;;;;;;;6.10;2.90;;;19.20;56.30;;;;;;5126317;27;45361;-76
2022/04/22 12:34:03;;;;;;;3.38;2.42;;;19.20;56.20;;;;;;5125663;27;45433;-76
2022/04/22 12:36:33;;;;;;;3.20;2.40;;;19.20;56.30;;;;;;5113391;27;46447;-76
2022/04/22 12:39:00;;;;;;;4.38;2.70;;;19.20;56.30;;;;;;5126092;27;45254;-76
2022/04/22 12:41:27;;;;;;;3.05;2.35;;;19.20;56.00;;;;;;5117314;27;45173;-76
2022/04/22 12:43:55;;;;;;;3.40;2.70;;;19.20;55.80;;;;;;5126040;27;45185;-76
2022/04/22 12:52:12;;;;;;;3.55;2.30;;;19.30;56.20;;;;;;5126402;27;45274;-76
2022/04/22 12:54:42;;;;;;;2.90;2.22;;;19.30;55.60;;;;;;5113192;27;45452;-76
2022/04/22 12:57:12;;;;;;;4.32;2.50;;;19.30;55.40;;;;;;5109978;27;48069;-76
2022/04/22 12:59:44;;;;;;;4.55;2.33;;;19.30;55.60;;;;;;5107378;27;45608;-76
2022/04/22 13:02:12;;;;;;;3.42;2.33;;;19.30;55.60;;;;;;5114457;27;45350;-76
2022/04/22 13:04:58;;;;;;;2.70;2.05;;;19.30;55.80;;;;;;5109673;27;45303;-76
2022/04/22 13:07:25;;;;;;;3.72;2.20;;;19.10;55.40;;;;;;5120149;27;47382;-76
2022/04/22 13:09:52;;;;;;;2.92;2.10;;;19.30;55.90;;;;;;5118808;27;45358;-75
2022/04/22 13:12:19;;;;;;;3.60;2.42;;;19.30;55.80;;;;;;5118310;27;45582;-76
2022/04/22 13:14:46;;;;;;;3.47;2.40;;;19.30;55.90;;;;;;5110518;27;45546;-75
2022/04/22 13:17:25;;;;;;;2.80;2.30;;;19.30;55.90;;;;;;5116760;27;45436;-75
2022/04/22 13:19:53;;;;;;;3.25;2.67;;;19.30;56.10;;;;;;5123425;27;45771;-76
2022/04/22 13:22:21;;;;;;;5.38;2.50;;;19.20;55.80;;;;;;5115808;27;45285;-76
2022/04/22 13:24:48;;;;;;;3.58;2.65;;;19.30;55.90;;;;;;5127448;27;45344;-75
2022/04/22 13:27:16;;;;;;;3.80;2.33;;;19.20;55.80;;;;;;5126305;27;47101;-75
2022/04/22 13:29:43;;;;;;;3.15;2.28;;;19.20;55.90;;;;;;5115218;27;45570;-75
2022/04/22 13:32:10;;;;;;;3.47;2.50;;;19.20;55.90;;;;;;5118983;27;45307;-75
2022/04/22 13:34:38;;;;;;;2.45;2.00;;;19.20;56.10;;;;;;5118567;27;45376;-76
2022/04/22 13:37:05;;;;;;;2.42;2.03;;;19.20;55.90;;;;;;5121141;27;47049;-75
2022/04/22 13:39:33;;;;;;;3.20;2.60;;;19.20;55.90;;;;;;5128139;27;45256;-76
2022/04/22 13:42:00;;;;;;;3.78;2.40;;;19.20;55.80;;;;;;5126517;27;46233;-76
2022/04/22 13:52:40;;;;;;;2.75;2.30;;;19.20;55.70;;;;;;5115823;27;45342;-76
2022/04/22 13:55:08;;;;;;;2.80;2.25;;;19.20;55.90;;;;;;5109828;27;45409;-75
2022/04/22 13:57:35;;;;;;;3.58;2.10;;;19.20;56.10;;;;;;5123310;27;46606;-75
2022/04/22 14:00:04;;;;;;;4.35;2.28;;;19.20;55.90;;;;;;5131670;27;45093;-75
2022/04/22 14:02:31;;;;;;;3.55;2.40;;;19.20;56.10;;;;;;5136223;27;45296;-76